Time;durP1;ratioP1;P1;durP2;ratioP2;P2;SDS_P1;SDS_P2;PMS_P1;PMS_P2;Temp;Humidity;BMP_temperature;BMP_pressure;BME280_temperature;BME280_humidity;BME280_pressure;Samples;Min_cycle;Max_cycle;Signal;HPM_P1;HPM_P2
2021/11/28 00:00:53;;;;;;;17.92;10.27;;;;;;;;;;5115749;28;20394;-71
2021/11/28 00:03:21;;;;;;;17.23;10.38;;;;;;;;;;5116552;28;20608;-72
2021/11/28 00:05:57;;;;;;;14.63;10.93;;;;;;;;;;5115747;28;20738;-72
2021/11/28 00:08:38;;;;;;;11.55;10.00;;;;;;;;;;5116399;28;20548;-72
2021/11/28 00:11:17;;;;;;;17.65;10.57;;;;;;;;;;5116325;28;20205;-72
2021/11/28 00:13:50;;;;;;;14.60;9.63;;;;;;;;;;5115509;28;20194;-72
2021/11/28 00:16:18;;;;;;;18.45;10.73;;;;;;;;;;5115484;28;20181;-71
2021/11/28 00:18:46;;;;;;;15.90;10.27;;;;;;;;;;5115310;28;20233;-72
2021/11/28 00:21:15;;;;;;;19.30;10.90;;;;;;;;;;5116152;28;20288;-72
2021/11/28 00:23:43;;;;;;;18.70;10.80;;;;;;;;;;5115577;28;20236;-72
2021/11/28 00:26:10;;;;;;;20.88;10.65;;;;;;;;;;5115225;28;20658;-72
2021/11/28 00:28:37;;;;;;;15.30;9.32;;;;;;;;;;5115498;28;20621;-72
2021/11/28 00:31:05;;;;;;;12.85;10.50;;;;;;;;;;5115522;28;20686;-72
2021/11/28 00:33:33;;;;;;;15.60;10.10;;;;;;;;;;5115948;28;20312;-73
2021/11/28 00:36:00;;;;;;;14.73;10.80;;;;;;;;;;5115319;28;20602;-71
2021/11/28 00:38:29;;;;;;;17.30;12.15;;;;;;;;;;5114998;28;20280;-72
2021/11/28 00:40:57;;;;;;;15.70;10.65;;;;;;;;;;5114915;28;20245;-72
2021/11/28 00:43:24;;;;;;;18.35;11.43;;;;;;;;;;5115193;28;20244;-72
2021/11/28 00:45:52;;;;;;;18.35;9.68;;;;;;;;;;5115362;28;20613;-72
2021/11/28 00:48:19;;;;;;;11.23;10.13;;;;;;;;;;5114933;28;20656;-72
2021/11/28 00:50:48;;;;;;;19.50;10.07;;;;;;;;;;5114639;28;20313;-72
2021/11/28 00:53:16;;;;;;;11.85;9.05;;;;;;;;;;5115301;28;20197;-72
2021/11/28 00:55:45;;;;;;;13.25;10.32;;;;;;;;;;5114691;28;20243;-72
2021/11/28 00:58:12;;;;;;;12.85;10.13;;;;;;;;;;5114951;28;20275;-72
2021/11/28 01:00:42;;;;;;;14.32;8.85;;;;;;;;;;5114518;28;20288;-72
2021/11/28 01:03:10;;;;;;;14.02;8.85;;;;;;;;;;5114582;28;20198;-72
2021/11/28 01:05:37;;;;;;;11.07;9.25;;;;;;;;;;5114780;28;20234;-71
2021/11/28 01:08:05;;;;;;;13.80;9.48;;;;;;;;;;5114887;28;20658;-72
2021/11/28 01:10:32;;;;;;;14.88;9.13;;;;;;;;;;5114014;28;20217;-72
2021/11/28 01:13:00;;;;;;;18.15;9.25;;;;;;;;;;5114460;28;20283;-72
2021/11/28 01:15:28;;;;;;;13.52;8.35;;;;;;;;;;5114592;28;20276;-72
2021/11/28 01:17:55;;;;;;;9.77;8.02;;;;;;;;;;5114234;28;20241;-72
2021/11/28 01:20:22;;;;;;;12.68;8.23;;;;;;;;;;5114673;28;20281;-71
2021/11/28 01:22:49;;;;;;;16.02;9.00;;;;;;;;;;5114520;28;20632;-72
2021/11/28 01:25:17;;;;;;;14.90;9.45;;;;;;;;;;5114140;28;20235;-72
2021/11/28 01:27:45;;;;;;;13.63;8.98;;;;;;;;;;5115283;28;20581;-72
2021/11/28 01:30:14;;;;;;;12.85;9.60;;;;;;;;;;5114317;28;20731;-71
2021/11/28 01:32:42;;;;;;;20.80;9.05;;;;;;;;;;5114289;28;20295;-72
2021/11/28 01:35:11;;;;;;;9.15;7.85;;;;;;;;;;5114748;28;20233;-72
2021/11/28 01:37:39;;;;;;;12.45;8.35;;;;;;;;;;5113984;28;20203;-73
2021/11/28 01:40:07;;;;;;;13.00;9.15;;;;;;;;;;5114453;28;20237;-72
2021/11/28 01:42:38;;;;;;;15.68;9.57;;;;;;;;;;5114158;28;20198;-72
2021/11/28 01:45:06;;;;;;;17.73;9.38;;;;;;;;;;5114114;28;20194;-72
2021/11/28 01:47:35;;;;;;;14.88;10.00;;;;;;;;;;5113784;28;20280;-72
2021/11/28 01:50:02;;;;;;;14.05;8.82;;;;;;;;;;5113824;28;20194;-72
2021/11/28 01:52:29;;;;;;;14.82;8.48;;;;;;;;;;5114105;28;20305;-72
2021/11/28 01:54:57;;;;;;;11.77;9.43;;;;;;;;;;5114037;28;20189;-72
2021/11/28 01:57:24;;;;;;;10.02;9.00;;;;;;;;;;5113710;28;20750;-72
2021/11/28 01:59:51;;;;;;;13.75;9.25;;;;;;;;;;5113707;28;20289;-71
2021/11/28 02:02:19;;;;;;;26.15;11.48;;;;;;;;;;5114343;28;20288;-72
2021/11/28 02:04:48;;;;;;;12.45;9.07;;;;;;;;;;5113304;28;20280;-72
2021/11/28 02:07:15;;;;;;;25.27;11.63;;;;;;;;;;5113205;28;20206;-72
2021/11/28 02:09:42;;;;;;;15.35;11.13;;;;;;;;;;5113576;28;20710;-72
2021/11/28 02:12:10;;;;;;;19.65;11.57;;;;;;;;;;5113150;28;20213;-71
2021/11/28 02:14:37;;;;;;;17.85;10.73;;;;;;;;;;5113159;28;20229;-72
2021/11/28 02:17:05;;;;;;;14.48;11.43;;;;;;;;;;5113143;28;20287;-71
2021/11/28 02:19:32;;;;;;;24.17;12.07;;;;;;;;;;5113376;28;20193;-71
2021/11/28 02:22:01;;;;;;;24.20;13.30;;;;;;;;;;5113638;28;20709;-71
2021/11/28 02:24:28;;;;;;;25.17;14.35;;;;;;;;;;5117646;28;20283;-71
2021/11/28 02:26:55;;;;;;;29.23;14.52;;;;;;;;;;5117448;28;20199;-71
2021/11/28 02:29:23;;;;;;;27.05;17.58;;;;;;;;;;5117504;28;20280;-71
2021/11/28 02:31:50;;;;;;;30.80;16.13;;;;;;;;;;5117151;28;20639;-71
2021/11/28 02:34:19;;;;;;;24.95;15.38;;;;;;;;;;5117937;28;20598;-71
2021/11/28 02:36:50;;;;;;;24.60;15.63;;;;;;;;;;5117265;28;20190;-71
2021/11/28 02:39:19;;;;;;;25.30;16.02;;;;;;;;;;5117003;28;20186;-71
2021/11/28 02:41:47;;;;;;;28.95;14.85;;;;;;;;;;5117326;28;20292;-72
2021/11/28 02:44:14;;;;;;;27.83;14.65;;;;;;;;;;5117034;28;20201;-71
2021/11/28 02:46:41;;;;;;;23.35;15.32;;;;;;;;;;5117226;28;20645;-71
2021/11/28 02:49:09;;;;;;;24.42;15.30;;;;;;;;;;5117260;28;20251;-71
2021/11/28 02:51:36;;;;;;;22.55;14.40;;;;;;;;;;5117216;28;20323;-71
2021/11/28 02:54:04;;;;;;;22.67;13.35;;;;;;;;;;5116817;28;20283;-71
2021/11/28 02:56:33;;;;;;;22.63;15.75;;;;;;;;;;5116480;28;20280;-71
2021/11/28 02:59:01;;;;;;;26.00;13.90;;;;;;;;;;5116335;28;20201;-71
2021/11/28 03:01:28;;;;;;;29.88;16.17;;;;;;;;;;5116750;28;20283;-71
2021/11/28 03:03:55;;;;;;;31.77;16.23;;;;;;;;;;5116531;28;20292;-71
2021/11/28 03:06:23;;;;;;;27.92;15.75;;;;;;;;;;5116646;28;20288;-71
2021/11/28 03:08:50;;;;;;;30.88;16.95;;;;;;;;;;5116425;28;20275;-70
2021/11/28 03:11:18;;;;;;;32.22;18.27;;;;;;;;;;5117267;28;20243;-71
2021/11/28 03:13:47;;;;;;;33.80;17.45;;;;;;;;;;5116527;28;20289;-71
2021/11/28 03:16:16;;;;;;;28.10;16.08;;;;;;;;;;5116033;28;20430;-71
2021/11/28 03:18:44;;;;;;;29.85;16.70;;;;;;;;;;5116014;28;20285;-70
2021/11/28 03:21:12;;;;;;;24.67;14.95;;;;;;;;;;5116577;28;20289;-71
2021/11/28 03:23:41;;;;;;;20.02;12.52;;;;;;;;;;5116339;28;20282;-71
2021/11/28 03:26:10;;;;;;;18.38;12.95;;;;;;;;;;5117034;28;20599;-71
2021/11/28 03:28:38;;;;;;;18.35;13.45;;;;;;;;;;5116292;28;20233;-71
2021/11/28 03:31:06;;;;;;;21.02;12.77;;;;;;;;;;5116144;28;20715;-71
2021/11/28 03:33:34;;;;;;;17.92;12.80;;;;;;;;;;5116132;28;20319;-71
2021/11/28 03:36:01;;;;;;;21.55;13.60;;;;;;;;;;5115099;28;20285;-70
2021/11/28 03:38:29;;;;;;;20.40;15.38;;;;;;;;;;5116502;28;20621;-71
2021/11/28 03:40:56;;;;;;;20.60;13.20;;;;;;;;;;5115737;28;20296;-71
2021/11/28 03:43:23;;;;;;;22.00;13.95;;;;;;;;;;5115609;28;20235;-71
2021/11/28 03:45:50;;;;;;;20.17;15.00;;;;;;;;;;5116402;28;20275;-71
2021/11/28 03:48:19;;;;;;;29.05;16.17;;;;;;;;;;5115911;28;20616;-70
2021/11/28 03:50:46;;;;;;;22.00;15.55;;;;;;;;;;5116034;28;20275;-70
2021/11/28 03:53:14;;;;;;;36.13;17.77;;;;;;;;;;5115796;28;20224;-72
2021/11/28 03:55:42;;;;;;;25.33;14.77;;;;;;;;;;5115489;28;20189;-71
2021/11/28 03:58:09;;;;;;;22.63;14.70;;;;;;;;;;5115288;28;20284;-71
2021/11/28 04:00:36;;;;;;;26.70;16.52;;;;;;;;;;5115307;28;20189;-71
2021/11/28 04:03:04;;;;;;;22.08;17.42;;;;;;;;;;5115860;28;20280;-71
2021/11/28 04:05:34;;;;;;;27.80;17.80;;;;;;;;;;5115589;28;20280;-70
2021/11/28 04:08:02;;;;;;;32.38;18.60;;;;;;;;;;5115346;28;20627;-70
2021/11/28 04:10:29;;;;;;;21.85;17.15;;;;;;;;;;5115506;28;20595;-71
2021/11/28 04:12:56;;;;;;;23.60;16.25;;;;;;;;;;5115657;28;20307;-71
2021/11/28 04:15:23;;;;;;;24.35;15.48;;;;;;;;;;5115129;28;20239;-70
2021/11/28 04:17:51;;;;;;;28.33;13.98;;;;;;;;;;5115457;28;20220;-71
2021/11/28 04:20:18;;;;;;;26.15;15.07;;;;;;;;;;5115795;28;20280;-71
2021/11/28 04:22:47;;;;;;;17.15;14.88;;;;;;;;;;5115592;28;20642;-71
2021/11/28 04:25:15;;;;;;;24.33;15.73;;;;;;;;;;5115233;28;20192;-72
2021/11/28 04:27:42;;;;;;;22.05;14.98;;;;;;;;;;5114979;28;20193;-72
2021/11/28 04:30:11;;;;;;;22.30;14.65;;;;;;;;;;5114892;28;20701;-72
2021/11/28 04:32:38;;;;;;;23.75;16.10;;;;;;;;;;5115108;28;20319;-72
2021/11/28 04:35:06;;;;;;;25.65;16.00;;;;;;;;;;5114709;28;20281;-72
2021/11/28 04:37:34;;;;;;;28.30;18.02;;;;;;;;;;5114895;28;20236;-72
2021/11/28 04:40:02;;;;;;;32.70;20.77;;;;;;;;;;5114518;28;20193;-71
2021/11/28 04:42:30;;;;;;;36.33;19.08;;;;;;;;;;5114854;28;20205;-72
2021/11/28 04:44:57;;;;;;;29.67;19.13;;;;;;;;;;5115526;28;20282;-72
2021/11/28 04:47:25;;;;;;;29.67;19.73;;;;;;;;;;5114237;28;20280;-72
2021/11/28 04:49:52;;;;;;;29.35;19.27;;;;;;;;;;5114916;28;20279;-71
2021/11/28 04:52:19;;;;;;;35.85;20.08;;;;;;;;;;5114596;28;20320;-71
2021/11/28 04:54:47;;;;;;;36.40;18.83;;;;;;;;;;5114810;28;20284;-71
2021/11/28 04:57:16;;;;;;;27.33;18.70;;;;;;;;;;5114398;28;20293;-72
2021/11/28 04:59:43;;;;;;;34.65;19.58;;;;;;;;;;5114483;28;20220;-72
2021/11/28 05:02:10;;;;;;;27.90;18.70;;;;;;;;;;5114345;28;20280;-72
2021/11/28 05:04:37;;;;;;;24.80;17.15;;;;;;;;;;5114243;28;20285;-72
2021/11/28 05:07:05;;;;;;;30.88;18.27;;;;;;;;;;5114992;28;20276;-71
2021/11/28 05:09:32;;;;;;;26.75;17.33;;;;;;;;;;5114421;28;20297;-72
2021/11/28 05:11:59;;;;;;;32.40;18.20;;;;;;;;;;5114062;28;20209;-72
2021/11/28 05:14:28;;;;;;;27.95;15.55;;;;;;;;;;5114381;28;20623;-72
2021/11/28 05:16:55;;;;;;;28.70;16.13;;;;;;;;;;5113912;28;20194;-72
2021/11/28 05:19:23;;;;;;;25.70;14.30;;;;;;;;;;5113959;28;20281;-72
2021/11/28 05:21:50;;;;;;;20.63;13.95;;;;;;;;;;5114285;28;20197;-72
2021/11/28 05:24:17;;;;;;;26.98;15.88;;;;;;;;;;5113826;28;20289;-72
2021/11/28 05:26:45;;;;;;;18.25;13.13;;;;;;;;;;5114266;28;20276;-72
2021/11/28 05:29:14;;;;;;;23.08;15.07;;;;;;;;;;5114333;28;20542;-72
2021/11/28 05:31:42;;;;;;;21.88;14.63;;;;;;;;;;5113594;28;20194;-72
2021/11/28 05:34:10;;;;;;;23.67;14.98;;;;;;;;;;5113763;28;20276;-72
2021/11/28 05:36:37;;;;;;;25.38;16.35;;;;;;;;;;5114748;28;20241;-73
2021/11/28 05:39:04;;;;;;;19.80;15.27;;;;;;;;;;5113768;28;20281;-72
2021/11/28 05:41:31;;;;;;;19.92;15.45;;;;;;;;;;5113725;28;20193;-71
2021/11/28 05:43:59;;;;;;;27.67;17.40;;;;;;;;;;5113674;28;20284;-71
2021/11/28 05:46:26;;;;;;;37.13;17.40;;;;;;;;;;5114047;28;20241;-72
2021/11/28 05:48:55;;;;;;;34.83;17.42;;;;;;;;;;5113557;28;20197;-72
2021/11/28 05:51:22;;;;;;;26.55;16.95;;;;;;;;;;5113839;28;20202;-71
2021/11/28 05:53:49;;;;;;;25.88;15.38;;;;;;;;;;5112437;28;20682;-71
2021/11/28 05:56:17;;;;;;;23.65;15.75;;;;;;;;;;5113285;28;20281;-71
2021/11/28 05:58:44;;;;;;;24.35;15.23;;;;;;;;;;5112689;28;20192;-72
2021/11/28 06:01:12;;;;;;;23.73;15.40;;;;;;;;;;5113326;28;20195;-73
2021/11/28 06:03:39;;;;;;;19.52;13.88;;;;;;;;;;5113622;28;20291;-71
2021/11/28 06:06:08;;;;;;;22.50;14.05;;;;;;;;;;5113393;28;20295;-72
2021/11/28 06:08:35;;;;;;;25.08;14.43;;;;;;;;;;5113758;28;20226;-72
2021/11/28 06:11:02;;;;;;;21.80;13.02;;;;;;;;;;5113835;28;20297;-73
2021/11/28 06:13:29;;;;;;;21.40;13.30;;;;;;;;;;5113575;28;20303;-72
2021/11/28 06:15:57;;;;;;;24.48;13.13;;;;;;;;;;5113594;28;20278;-72
2021/11/28 06:18:24;;;;;;;19.25;13.93;;;;;;;;;;5113299;28;20196;-72
2021/11/28 06:20:51;;;;;;;22.38;14.88;;;;;;;;;;5113275;28;20199;-72
2021/11/28 06:23:20;;;;;;;21.60;14.40;;;;;;;;;;5113119;28;20275;-72
2021/11/28 06:25:47;;;;;;;25.52;16.25;;;;;;;;;;5112886;28;20720;-71
2021/11/28 06:28:14;;;;;;;25.63;14.70;;;;;;;;;;5113208;28;20228;-71
2021/11/28 06:30:41;;;;;;;24.17;15.68;;;;;;;;;;5113746;28;20283;-72
2021/11/28 06:33:09;;;;;;;25.65;16.92;;;;;;;;;;5112985;28;20693;-71
2021/11/28 06:35:36;;;;;;;27.15;16.58;;;;;;;;;;5113665;28;20356;-72
2021/11/28 06:38:03;;;;;;;24.48;17.38;;;;;;;;;;5113266;28;20727;-72
2021/11/28 06:40:32;;;;;;;31.23;17.67;;;;;;;;;;5113062;28;20721;-72
2021/11/28 06:42:59;;;;;;;22.88;17.33;;;;;;;;;;5113020;28;20283;-72
2021/11/28 06:45:27;;;;;;;28.30;16.52;;;;;;;;;;5113053;28;20288;-72
2021/11/28 06:47:54;;;;;;;25.83;15.20;;;;;;;;;;5113021;28;20230;-74
2021/11/28 06:50:21;;;;;;;29.52;15.77;;;;;;;;;;5113322;28;20198;-72
2021/11/28 06:52:48;;;;;;;23.20;17.67;;;;;;;;;;5113101;28;20565;-72
2021/11/28 06:55:16;;;;;;;27.52;16.40;;;;;;;;;;5112962;28;20193;-73
2021/11/28 06:57:44;;;;;;;23.60;15.85;;;;;;;;;;5112943;28;20691;-72
2021/11/28 07:00:12;;;;;;;26.15;14.73;;;;;;;;;;5113248;28;20703;-72
2021/11/28 07:02:39;;;;;;;23.42;14.43;;;;;;;;;;5113194;28;20233;-72
2021/11/28 07:05:07;;;;;;;25.25;13.90;;;;;;;;;;5112978;28;20280;-72
2021/11/28 07:07:34;;;;;;;21.27;14.32;;;;;;;;;;5112999;28;20622;-71
2021/11/28 07:10:01;;;;;;;21.88;14.57;;;;;;;;;;5114528;28;20618;-72
2021/11/28 07:12:28;;;;;;;18.85;13.23;;;;;;;;;;5116435;28;20282;-71
2021/11/28 07:14:57;;;;;;;18.42;13.32;;;;;;;;;;5116618;28;20289;-71
2021/11/28 07:17:24;;;;;;;20.35;13.55;;;;;;;;;;5116700;28;20276;-71
2021/11/28 07:19:52;;;;;;;14.15;12.40;;;;;;;;;;5116391;28;20277;-71
2021/11/28 07:22:19;;;;;;;15.23;11.80;;;;;;;;;;5116281;28;20285;-72
2021/11/28 07:24:47;;;;;;;17.95;12.85;;;;;;;;;;5116399;28;20543;-72
2021/11/28 07:27:14;;;;;;;18.33;12.65;;;;;;;;;;5115980;28;20234;-72
2021/11/28 07:29:41;;;;;;;24.15;12.35;;;;;;;;;;5116468;28;20237;-72
2021/11/28 07:32:10;;;;;;;14.35;11.35;;;;;;;;;;5116159;28;20230;-71
2021/11/28 07:34:37;;;;;;;17.10;11.85;;;;;;;;;;5116820;28;20213;-72
2021/11/28 07:37:05;;;;;;;14.60;10.30;;;;;;;;;;5116027;28;20717;-72
2021/11/28 07:39:32;;;;;;;21.02;11.68;;;;;;;;;;5115946;28;20683;-72
2021/11/28 07:41:59;;;;;;;12.75;9.93;;;;;;;;;;5115993;28;20236;-73
2021/11/28 07:44:27;;;;;;;16.50;10.93;;;;;;;;;;5116203;28;20304;-72
2021/11/28 07:46:54;;;;;;;17.85;12.13;;;;;;;;;;5115468;28;20721;-72
2021/11/28 07:49:23;;;;;;;18.58;10.75;;;;;;;;;;5116009;28;20284;-72
2021/11/28 07:51:50;;;;;;;14.38;10.80;;;;;;;;;;5116253;28;20544;-72
2021/11/28 07:54:17;;;;;;;13.68;9.93;;;;;;;;;;5115431;28;20218;-72
2021/11/28 07:56:47;;;;;;;12.68;9.48;;;;;;;;;;5116323;28;20280;-72
2021/11/28 07:59:15;;;;;;;11.15;9.77;;;;;;;;;;5115573;28;20197;-72
2021/11/28 08:01:42;;;;;;;19.50;9.98;;;;;;;;;;5115852;28;20197;-71
2021/11/28 08:04:09;;;;;;;15.30;9.38;;;;;;;;;;5115723;28;20635;-72
2021/11/28 08:06:38;;;;;;;14.40;11.48;;;;;;;;;;5115080;28;20284;-72
2021/11/28 08:09:05;;;;;;;16.65;10.90;;;;;;;;;;5115885;28;20296;-71
2021/11/28 08:11:32;;;;;;;19.02;11.30;;;;;;;;;;5115279;28;20285;-72
2021/11/28 08:13:59;;;;;;;15.40;10.80;;;;;;;;;;5114986;28;20742;-72
2021/11/28 08:16:27;;;;;;;17.40;10.63;;;;;;;;;;5114686;28;20197;-72
2021/11/28 08:18:54;;;;;;;14.90;12.07;;;;;;;;;;5115078;28;20281;-72
2021/11/28 08:21:26;;;;;;;18.48;13.32;;;;;;;;;;5115239;28;20277;-75
2021/11/28 08:23:54;;;;;;;16.42;12.10;;;;;;;;;;5115152;28;20199;-71
2021/11/28 08:26:22;;;;;;;18.90;12.80;;;;;;;;;;5114667;28;20228;-71
2021/11/28 08:28:49;;;;;;;13.75;10.50;;;;;;;;;;5115236;28;20356;-70
2021/11/28 08:31:17;;;;;;;17.60;12.25;;;;;;;;;;5114964;28;20720;-70
2021/11/28 08:33:44;;;;;;;13.85;11.73;;;;;;;;;;5115484;28;20626;-68
2021/11/28 08:36:11;;;;;;;17.65;11.25;;;;;;;;;;5114755;28;20284;-68
2021/11/28 08:38:42;;;;;;;17.65;11.57;;;;;;;;;;5115116;28;20276;-68
2021/11/28 08:41:11;;;;;;;15.68;10.68;;;;;;;;;;5115145;28;20190;-68
2021/11/28 08:43:38;;;;;;;17.88;10.40;;;;;;;;;;5115010;28;20200;-68
2021/11/28 08:46:06;;;;;;;19.70;12.20;;;;;;;;;;5114658;28;20283;-68
2021/11/28 08:48:34;;;;;;;16.73;10.32;;;;;;;;;;5114697;28;20197;-68
2021/11/28 08:51:01;;;;;;;15.05;11.50;;;;;;;;;;5114891;28;20232;-68
2021/11/28 08:53:29;;;;;;;20.33;11.88;;;;;;;;;;5114750;28;20254;-68
2021/11/28 08:55:56;;;;;;;14.73;11.90;;;;;;;;;;5114655;28;20283;-67
2021/11/28 08:58:25;;;;;;;15.75;11.80;;;;;;;;;;5114629;28;20663;-68
2021/11/28 09:00:52;;;;;;;19.23;12.30;;;;;;;;;;5114553;28;20285;-68
2021/11/28 09:03:19;;;;;;;18.35;12.52;;;;;;;;;;5114082;28;20201;-68
2021/11/28 09:05:47;;;;;;;20.98;14.05;;;;;;;;;;5114471;28;20623;-68
2021/11/28 09:08:14;;;;;;;17.00;12.80;;;;;;;;;;5114823;28;20280;-67
2021/11/28 09:10:42;;;;;;;19.30;14.40;;;;;;;;;;5114039;28;20285;-68
2021/11/28 09:13:10;;;;;;;21.65;14.20;;;;;;;;;;5113911;28;20220;-68
2021/11/28 09:15:39;;;;;;;16.05;13.65;;;;;;;;;;5114441;28;20222;-67
2021/11/28 09:18:11;;;;;;;19.02;13.77;;;;;;;;;;5113971;28;20228;-68
2021/11/28 09:20:43;;;;;;;18.30;13.65;;;;;;;;;;5114596;28;20190;-69
2021/11/28 09:25:55;;;;;;;27.70;15.35;;;;;;;;;;5113976;28;20180;-69
2021/11/28 09:28:22;;;;;;;18.35;15.05;;;;;;;;;;5113692;28;20261;-68
2021/11/28 09:30:52;;;;;;;19.83;16.50;;;;;;;;;;5113645;28;20239;-68
2021/11/28 09:33:19;;;;;;;15.70;14.10;;;;;;;;;;5113411;28;20272;-68
2021/11/28 09:35:46;;;;;;;24.88;15.57;;;;;;;;;;5113562;28;20229;-69
2021/11/28 09:38:13;;;;;;;20.73;15.77;;;;;;;;;;5113919;28;20236;-68
2021/11/28 09:40:43;;;;;;;18.85;16.05;;;;;;;;;;5113850;28;20280;-68
2021/11/28 09:43:14;;;;;;;24.70;15.23;;;;;;;;;;5113965;28;20676;-68
2021/11/28 09:45:41;;;;;;;18.33;15.20;;;;;;;;;;5114190;28;20186;-69
2021/11/28 09:48:10;;;;;;;22.80;14.55;;;;;;;;;;5113731;28;20614;-68
2021/11/28 09:50:38;;;;;;;20.50;14.90;;;;;;;;;;5113373;28;20232;-68
2021/11/28 09:53:06;;;;;;;18.55;14.60;;;;;;;;;;5114044;28;20658;-68
2021/11/28 09:55:42;;;;;;;19.05;14.70;;;;;;;;;;5113459;28;20284;-69
2021/11/28 09:58:10;;;;;;;26.77;16.65;;;;;;;;;;5113671;28;20265;-69
2021/11/28 10:00:38;;;;;;;19.88;14.57;;;;;;;;;;5113755;28;20281;-68
2021/11/28 10:03:05;;;;;;;18.70;15.45;;;;;;;;;;5114288;28;20232;-69
2021/11/28 10:05:34;;;;;;;23.80;14.88;;;;;;;;;;5113679;28;20609;-69
2021/11/28 10:08:01;;;;;;;29.13;15.63;;;;;;;;;;5113752;28;20276;-67
2021/11/28 10:10:28;;;;;;;22.80;17.42;;;;;;;;;;5113497;28;20617;-69
2021/11/28 10:12:56;;;;;;;21.00;14.82;;;;;;;;;;5112506;28;20608;-68
2021/11/28 10:15:24;;;;;;;20.50;15.45;;;;;;;;;;5112802;28;20191;-68
2021/11/28 10:17:52;;;;;;;20.20;14.75;;;;;;;;;;5112938;28;20240;-69
2021/11/28 10:20:20;;;;;;;19.60;14.43;;;;;;;;;;5112822;28;20280;-68
2021/11/28 10:22:49;;;;;;;22.98;16.30;;;;;;;;;;5113354;28;20198;-68
2021/11/28 10:25:18;;;;;;;22.75;14.82;;;;;;;;;;5113414;28;20199;-69
2021/11/28 10:27:46;;;;;;;21.55;14.70;;;;;;;;;;5113570;28;20217;-68
2021/11/28 10:30:15;;;;;;;19.38;16.10;;;;;;;;;;5113548;28;20194;-69
2021/11/28 10:32:44;;;;;;;22.75;17.38;;;;;;;;;;5113365;28;20257;-69
2021/11/28 10:35:11;;;;;;;21.67;15.45;;;;;;;;;;5112873;28;20268;-69
2021/11/28 10:37:40;;;;;;;18.88;14.95;;;;;;;;;;5113349;28;20193;-68
2021/11/28 10:40:09;;;;;;;20.85;16.30;;;;;;;;;;5112906;28;20292;-69
2021/11/28 10:42:37;;;;;;;22.27;15.10;;;;;;;;;;5113587;28;20190;-68
2021/11/28 10:45:07;;;;;;;30.05;17.55;;;;;;;;;;5116753;28;20284;-69
2021/11/28 10:47:39;;;;;;;18.70;15.02;;;;;;;;;;5117038;28;20196;-69
2021/11/28 10:50:11;;;;;;;29.95;19.15;;;;;;;;;;5117493;28;20211;-68
2021/11/28 10:52:38;;;;;;;33.88;19.15;;;;;;;;;;5117421;28;20290;-68
2021/11/28 10:55:13;;;;;;;26.83;16.50;;;;;;;;;;5116808;28;20754;-69
2021/11/28 10:57:42;;;;;;;22.92;15.68;;;;;;;;;;5116659;28;20285;-69
2021/11/28 11:00:11;;;;;;;26.40;15.93;;;;;;;;;;5116594;28;20661;-68
2021/11/28 11:02:39;;;;;;;23.65;16.63;;;;;;;;;;5117586;28;20246;-69
2021/11/28 11:05:09;;;;;;;21.38;15.45;;;;;;;;;;5117342;28;20198;-69
2021/11/28 11:07:48;;;;;;;26.27;15.95;;;;;;;;;;5116539;28;20194;-69
2021/11/28 11:10:27;;;;;;;24.90;16.88;;;;;;;;;;5117155;28;20304;-68
2021/11/28 11:12:54;;;;;;;29.45;18.10;;;;;;;;;;5116561;28;20188;-68
2021/11/28 11:15:32;;;;;;;25.42;17.77;;;;;;;;;;5117137;28;20317;-69
2021/11/28 11:18:00;;;;;;;27.00;17.35;;;;;;;;;;5116530;28;20651;-69
2021/11/28 11:20:27;;;;;;;25.00;16.95;;;;;;;;;;5116095;28;20232;-68
2021/11/28 11:22:55;;;;;;;30.73;17.25;;;;;;;;;;5116628;28;20615;-68
2021/11/28 11:25:30;;;;;;;27.42;18.35;;;;;;;;;;5116602;28;20252;-68
2021/11/28 11:28:09;;;;;;;23.75;18.27;;;;;;;;;;5116336;28;20699;-68
2021/11/28 11:30:36;;;;;;;28.92;17.13;;;;;;;;;;5116510;28;20187;-68
2021/11/28 11:33:05;;;;;;;30.90;18.17;;;;;;;;;;5116239;28;20310;-68
2021/11/28 11:35:33;;;;;;;25.73;17.95;;;;;;;;;;5116263;28;20225;-68
2021/11/28 11:38:02;;;;;;;19.58;13.63;;;;;;;;;;5116068;28;20194;-68
2021/11/28 11:40:29;;;;;;;28.33;19.92;;;;;;;;;;5115938;28;20344;-68
2021/11/28 11:42:56;;;;;;;30.83;19.52;;;;;;;;;;5115953;28;20227;-68
2021/11/28 11:45:26;;;;;;;26.05;18.73;;;;;;;;;;5116228;28;20627;-68
2021/11/28 11:47:54;;;;;;;31.23;18.00;;;;;;;;;;5115530;28;20673;-69
2021/11/28 11:50:22;;;;;;;25.52;17.20;;;;;;;;;;5116017;28;20228;-69
2021/11/28 11:52:52;;;;;;;22.90;14.90;;;;;;;;;;5115728;28;20244;-69
2021/11/28 11:55:21;;;;;;;28.73;17.65;;;;;;;;;;5114757;28;20254;-68
2021/11/28 11:57:53;;;;;;;23.33;16.67;;;;;;;;;;5115567;28;20230;-68
2021/11/28 12:00:26;;;;;;;26.10;15.25;;;;;;;;;;5116163;28;20268;-69
2021/11/28 12:02:57;;;;;;;25.75;16.10;;;;;;;;;;5116100;28;20198;-69
2021/11/28 12:05:35;;;;;;;21.15;15.70;;;;;;;;;;5115886;28;20278;-69
2021/11/28 12:08:04;;;;;;;22.88;15.48;;;;;;;;;;5115766;28;20202;-69
2021/11/28 12:10:36;;;;;;;27.95;15.50;;;;;;;;;;5115712;28;20225;-69
2021/11/28 12:13:04;;;;;;;28.52;17.40;;;;;;;;;;5115574;28;20203;-69
2021/11/28 12:15:32;;;;;;;23.83;14.25;;;;;;;;;;5115435;28;20319;-68
2021/11/28 12:18:01;;;;;;;18.75;11.43;;;;;;;;;;5115699;28;20223;-69
2021/11/28 12:20:47;;;;;;;27.45;15.95;;;;;;;;;;5115344;28;20189;-68
2021/11/28 12:23:14;;;;;;;22.95;17.77;;;;;;;;;;5115323;28;20281;-69
2021/11/28 12:25:42;;;;;;;28.02;18.80;;;;;;;;;;5114918;28;20234;-68
2021/11/28 12:28:29;;;;;;;26.05;16.75;;;;;;;;;;5114867;28;20193;-69
2021/11/28 12:30:57;;;;;;;26.38;18.23;;;;;;;;;;5114778;28;20340;-68
2021/11/28 12:33:39;;;;;;;27.48;17.17;;;;;;;;;;5115187;28;20228;-68
2021/11/28 12:36:07;;;;;;;28.60;17.38;;;;;;;;;;5114191;28;20280;-68
2021/11/28 12:38:49;;;;;;;31.20;19.67;;;;;;;;;;5114911;28;20241;-68
2021/11/28 12:41:16;;;;;;;32.30;17.08;;;;;;;;;;5114519;28;20189;-68
2021/11/28 12:44:04;;;;;;;25.88;17.20;;;;;;;;;;5114958;28;20598;-68
2021/11/28 12:46:40;;;;;;;29.52;17.80;;;;;;;;;;5115292;28;20544;-68
2021/11/28 12:49:22;;;;;;;33.10;16.40;;;;;;;;;;5114999;28;20283;-68
2021/11/28 12:51:51;;;;;;;29.67;17.52;;;;;;;;;;5114755;28;20277;-68
2021/11/28 12:54:24;;;;;;;27.48;17.35;;;;;;;;;;5114591;28;20652;-69
2021/11/28 12:57:06;;;;;;;25.77;17.65;;;;;;;;;;5114745;28;20193;-68
2021/11/28 12:59:34;;;;;;;18.25;12.70;;;;;;;;;;5113908;28;20282;-68
2021/11/28 13:02:01;;;;;;;28.92;19.00;;;;;;;;;;5115195;28;20224;-69
2021/11/28 13:04:48;;;;;;;21.73;13.40;;;;;;;;;;5113422;28;20284;-68
2021/11/28 13:07:39;;;;;;;24.17;15.77;;;;;;;;;;5114161;28;20690;-69
2021/11/28 13:10:36;;;;;;;24.60;14.88;;;;;;;;;;5093379;28;20230;-69
2021/11/28 13:13:06;;;;;;;22.77;15.70;;;;;;;;;;5031848;28;20296;-69
2021/11/28 13:15:35;;;;;;;24.23;15.38;;;;;;;;;;5096252;28;20648;-69
2021/11/28 13:18:03;;;;;;;21.90;15.48;;;;;;;;;;5114005;28;20690;-68
2021/11/28 13:20:30;;;;;;;24.45;14.48;;;;;;;;;;5113982;28;20189;-68
2021/11/28 13:22:59;;;;;;;28.23;16.17;;;;;;;;;;5114262;28;20239;-69
2021/11/28 13:25:34;;;;;;;24.13;14.82;;;;;;;;;;5113647;28;20287;-68
2021/11/28 13:28:10;;;;;;;27.75;15.43;;;;;;;;;;5114305;28;20195;-68
2021/11/28 13:30:39;;;;;;;31.42;17.02;;;;;;;;;;5114038;28;20207;-68
2021/11/28 13:33:07;;;;;;;28.02;16.02;;;;;;;;;;5113932;28;20226;-68
2021/11/28 13:35:36;;;;;;;25.15;15.50;;;;;;;;;;5114098;28;20307;-68
2021/11/28 13:38:14;;;;;;;24.35;15.40;;;;;;;;;;5113722;28;20193;-68
2021/11/28 13:40:42;;;;;;;23.95;15.63;;;;;;;;;;5113777;28;20674;-69
2021/11/28 13:43:10;;;;;;;28.85;16.65;;;;;;;;;;5113656;28;20693;-69
2021/11/28 13:45:38;;;;;;;28.30;18.27;;;;;;;;;;5113603;28;20752;-68
2021/11/28 13:48:05;;;;;;;23.23;15.48;;;;;;;;;;5114085;28;20615;-68
2021/11/28 13:50:32;;;;;;;27.73;17.17;;;;;;;;;;5113432;28;20229;-68
2021/11/28 13:53:15;;;;;;;28.92;17.38;;;;;;;;;;5114600;28;20233;-69
2021/11/28 13:55:52;;;;;;;27.65;18.13;;;;;;;;;;5114317;28;20304;-69
2021/11/28 13:58:24;;;;;;;25.70;15.82;;;;;;;;;;5113812;28;20284;-69
2021/11/28 14:00:52;;;;;;;21.52;14.57;;;;;;;;;;5113578;28;20187;-68
2021/11/28 14:03:19;;;;;;;31.38;16.65;;;;;;;;;;5113385;28;20285;-69
2021/11/28 14:05:46;;;;;;;27.65;16.08;;;;;;;;;;5113915;28;20283;-68
2021/11/28 14:08:14;;;;;;;26.40;16.27;;;;;;;;;;5113588;28;20611;-68
2021/11/28 14:10:41;;;;;;;29.95;16.60;;;;;;;;;;5112456;28;20483;-69
2021/11/28 14:13:08;;;;;;;27.23;16.73;;;;;;;;;;5112649;28;20283;-68
2021/11/28 14:15:38;;;;;;;22.02;15.43;;;;;;;;;;5112651;28;20749;-69
2021/11/28 14:18:07;;;;;;;27.80;15.70;;;;;;;;;;5112423;28;20654;-69
2021/11/28 14:20:36;;;;;;;26.95;16.30;;;;;;;;;;5116990;28;20197;-68
2021/11/28 14:23:04;;;;;;;27.00;17.83;;;;;;;;;;5116549;28;20285;-69
2021/11/28 14:25:33;;;;;;;25.42;16.45;;;;;;;;;;5116518;28;20692;-69
2021/11/28 14:28:08;;;;;;;25.33;16.48;;;;;;;;;;5117319;28;20565;-69
2021/11/28 14:30:37;;;;;;;23.27;15.57;;;;;;;;;;5117246;28;20239;-69